Time;durP1;ratioP1;P1;durP2;ratioP2;P2;SDS_P1;SDS_P2;PMS_P1;PMS_P2;Temp;Humidity;BMP_temperature;BMP_pressure;BME280_temperature;BME280_humidity;BME280_pressure;Samples;Min_cycle;Max_cycle;Signal;HPM_P1;HPM_P2
2023/09/13 00:00:27;;;;;;;33.45;24.42;;;18.30;92.60;;;;;;4963818;28;20057;-77
2023/09/13 00:02:53;;;;;;;33.78;23.42;;;18.30;92.60;;;;;;4961878;28;20160;-74
2023/09/13 00:05:19;;;;;;;33.83;23.20;;;18.20;92.70;;;;;;4964745;28;20939;-77
2023/09/13 00:07:44;;;;;;;30.50;21.77;;;18.30;92.70;;;;;;4964486;28;20023;-76
2023/09/13 00:10:10;;;;;;;32.08;22.50;;;18.20;92.70;;;;;;4963110;28;20045;-75
2023/09/13 00:12:36;;;;;;;30.95;22.60;;;18.30;92.70;;;;;;4959469;28;20189;-77
2023/09/13 00:15:02;;;;;;;31.88;22.42;;;18.20;92.70;;;;;;4952499;28;20049;-75
2023/09/13 00:17:28;;;;;;;32.08;23.73;;;18.20;92.70;;;;;;4951583;28;20122;-75
2023/09/13 00:19:56;;;;;;;29.95;22.90;;;18.20;92.80;;;;;;4945827;28;20188;-75
2023/09/13 00:22:22;;;;;;;34.03;24.15;;;18.10;92.90;;;;;;4957911;28;20039;-75
2023/09/13 00:24:48;;;;;;;34.13;24.25;;;18.10;92.90;;;;;;4945180;28;20030;-78
2023/09/13 00:27:14;;;;;;;33.38;24.15;;;18.10;92.90;;;;;;4948937;28;20055;-75
2023/09/13 00:29:40;;;;;;;34.13;23.15;;;18.00;93.00;;;;;;4942868;28;20055;-75
2023/09/13 00:32:05;;;;;;;31.85;23.33;;;18.10;93.20;;;;;;4943585;28;20039;-78
2023/09/13 00:34:31;;;;;;;35.50;24.25;;;18.10;93.20;;;;;;4963325;28;20039;-77
2023/09/13 00:36:57;;;;;;;33.00;24.42;;;18.10;93.10;;;;;;4960718;28;20165;-75
2023/09/13 00:39:23;;;;;;;38.03;24.65;;;18.10;93.10;;;;;;4955944;28;20043;-75
2023/09/13 00:41:49;;;;;;;34.90;24.60;;;18.10;93.30;;;;;;4956889;28;20120;-74
2023/09/13 00:44:14;;;;;;;35.85;24.55;;;18.10;93.30;;;;;;4951296;28;20030;-78
2023/09/13 00:46:41;;;;;;;39.65;26.35;;;18.10;93.20;;;;;;4945852;28;20023;-76
2023/09/13 00:49:06;;;;;;;39.80;27.10;;;18.10;93.40;;;;;;4944797;28;20078;-79
2023/09/13 00:51:33;;;;;;;40.78;26.50;;;18.10;93.30;;;;;;4955940;28;20051;-77
2023/09/13 00:54:01;;;;;;;36.67;26.73;;;18.10;93.30;;;;;;5016477;28;20603;-74
2023/09/13 00:56:27;;;;;;;42.10;27.92;;;18.20;93.40;;;;;;5048412;28;20040;-75
2023/09/13 00:58:54;;;;;;;42.17;28.65;;;18.20;93.40;;;;;;4955840;28;20396;-74
2023/09/13 01:01:21;;;;;;;41.67;29.50;;;18.20;93.40;;;;;;4953697;28;20493;-75
2023/09/13 01:03:47;;;;;;;46.95;28.90;;;18.20;93.40;;;;;;4951850;28;21426;-75
2023/09/13 01:06:14;;;;;;;47.20;30.13;;;18.20;93.40;;;;;;4946520;28;20028;-75
2023/09/13 01:08:41;;;;;;;44.88;29.45;;;18.10;93.70;;;;;;4962197;28;20075;-74
2023/09/13 01:11:08;;;;;;;47.25;30.98;;;18.10;93.70;;;;;;4960502;28;20035;-78
2023/09/13 01:13:34;;;;;;;50.28;31.80;;;18.20;93.80;;;;;;4989717;28;20047;-76
2023/09/13 01:16:21;;;;;;;50.47;32.15;;;18.20;93.70;;;;;;4965720;28;20113;-75
2023/09/13 01:19:08;;;;;;;51.97;31.95;;;18.10;93.80;;;;;;5037812;28;20053;-75
2023/09/13 01:22:23;;;;;;;49.70;32.22;;;18.10;94.00;;;;;;5041475;28;20032;-78
2023/09/13 01:25:18;;;;;;;54.22;33.67;;;18.10;94.00;;;;;;4975027;28;20078;-77
2023/09/13 01:27:48;;;;;;;56.00;36.58;;;18.10;94.10;;;;;;4956283;28;20294;-75
2023/09/13 01:30:15;;;;;;;59.10;36.55;;;18.20;94.00;;;;;;4971062;28;20050;-75
2023/09/13 01:32:44;;;;;;;51.97;34.33;;;18.10;94.10;;;;;;4972207;28;20530;-78
2023/09/13 01:35:10;;;;;;;57.10;36.72;;;18.20;94.20;;;;;;4988033;28;20086;-73
2023/09/13 01:37:36;;;;;;;58.92;38.55;;;18.20;94.20;;;;;;4962878;28;20039;-75
2023/09/13 01:40:05;;;;;;;53.80;37.83;;;18.20;94.10;;;;;;4963390;28;20033;-76
2023/09/13 01:42:33;;;;;;;56.50;37.78;;;18.20;94.10;;;;;;4962722;28;20535;-74
2023/09/13 01:44:59;;;;;;;60.78;39.97;;;18.20;93.90;;;;;;4947570;28;20386;-74
2023/09/13 01:47:29;;;;;;;60.10;38.40;;;18.20;94.00;;;;;;4949827;28;20043;-76
2023/09/13 01:49:56;;;;;;;57.28;38.92;;;18.20;94.10;;;;;;4960137;28;20031;-74
2023/09/13 01:52:22;;;;;;;54.95;39.35;;;18.20;94.10;;;;;;4959946;28;20026;-77
2023/09/13 01:54:48;;;;;;;55.38;37.53;;;18.20;94.10;;;;;;4952447;28;20096;-75
2023/09/13 01:57:13;;;;;;;47.80;33.53;;;18.20;94.20;;;;;;4946032;28;20038;-74
2023/09/13 01:59:39;;;;;;;51.88;34.53;;;18.10;94.00;;;;;;4944304;28;20374;-75
2023/09/13 02:02:04;;;;;;;53.55;36.63;;;18.10;94.10;;;;;;4947783;28;20034;-73
2023/09/13 02:04:33;;;;;;;51.13;34.65;;;18.10;94.10;;;;;;4962152;28;20137;-77
2023/09/13 02:07:00;;;;;;;51.08;35.38;;;18.10;94.10;;;;;;4974370;28;20126;-76
2023/09/13 02:09:26;;;;;;;48.28;34.63;;;18.10;94.10;;;;;;4962644;28;20039;-75
2023/09/13 02:11:51;;;;;;;52.65;35.97;;;18.10;94.10;;;;;;4958371;28;20034;-76
2023/09/13 02:14:17;;;;;;;51.60;34.92;;;18.00;94.30;;;;;;4951197;28;20047;-78
2023/09/13 02:16:42;;;;;;;48.00;34.95;;;18.00;94.40;;;;;;4940244;28;20052;-76
2023/09/13 02:19:09;;;;;;;52.00;37.13;;;18.00;94.40;;;;;;4957064;28;20039;-76
2023/09/13 02:21:34;;;;;;;58.13;37.50;;;18.00;94.60;;;;;;4968807;28;20737;-76
2023/09/13 02:24:00;;;;;;;52.97;37.92;;;18.10;94.80;;;;;;4946619;28;20035;-75
2023/09/13 02:26:26;;;;;;;57.97;38.83;;;18.10;94.80;;;;;;4942157;28;20028;-77
2023/09/13 02:28:53;;;;;;;55.03;39.72;;;18.10;94.90;;;;;;4940638;28;20051;-76
2023/09/13 02:31:28;;;;;;;64.55;41.22;;;18.10;94.90;;;;;;4942844;28;20182;-75
2023/09/13 02:33:54;;;;;;;60.80;42.85;;;18.10;94.90;;;;;;4946592;28;20058;-76
2023/09/13 02:36:22;;;;;;;59.22;42.20;;;18.20;94.90;;;;;;4964037;28;20515;-75
2023/09/13 02:38:47;;;;;;;57.70;40.30;;;18.10;95.00;;;;;;4959577;28;20062;-75
2023/09/13 02:41:13;;;;;;;55.20;39.60;;;18.10;95.20;;;;;;4960232;28;20031;-78
2023/09/13 02:43:42;;;;;;;56.15;39.80;;;18.10;95.30;;;;;;4983655;28;20238;-74
2023/09/13 02:46:07;;;;;;;55.10;39.60;;;18.20;95.30;;;;;;4974557;28;20062;-76
2023/09/13 02:48:33;;;;;;;53.47;39.80;;;18.20;95.20;;;;;;4960359;28;20070;-76
2023/09/13 02:50:59;;;;;;;52.85;39.88;;;18.20;95.10;;;;;;4969542;28;20023;-74
2023/09/13 02:53:25;;;;;;;58.85;42.47;;;18.20;95.10;;;;;;4947082;28;20085;-74
2023/09/13 02:55:51;;;;;;;56.10;39.00;;;18.30;95.10;;;;;;4943288;28;20363;-76
2023/09/13 02:58:16;;;;;;;57.58;38.60;;;18.30;95.10;;;;;;4948823;28;20047;-73
2023/09/13 03:00:43;;;;;;;51.65;37.58;;;18.20;95.10;;;;;;4957973;28;20027;-78
2023/09/13 03:03:09;;;;;;;52.78;37.95;;;18.30;95.10;;;;;;5004672;28;20033;-75
2023/09/13 03:05:34;;;;;;;48.80;36.33;;;18.30;95.10;;;;;;5042870;28;20326;-74
2023/09/13 03:08:00;;;;;;;52.47;39.03;;;18.30;95.10;;;;;;5019785;28;20458;-79
2023/09/13 03:10:29;;;;;;;54.40;38.45;;;18.30;95.00;;;;;;4964862;28;20688;-76
2023/09/13 03:12:54;;;;;;;50.45;38.13;;;18.20;95.10;;;;;;4982779;28;20118;-75
2023/09/13 03:15:20;;;;;;;53.03;38.40;;;18.20;95.10;;;;;;4941244;28;20452;-74
2023/09/13 03:17:46;;;;;;;52.97;39.47;;;18.30;95.10;;;;;;4940107;28;20054;-76
2023/09/13 03:20:12;;;;;;;57.72;41.75;;;18.30;95.10;;;;;;4942430;28;20482;-78
2023/09/13 03:22:37;;;;;;;59.15;38.95;;;18.20;95.10;;;;;;4943613;28;20042;-76
2023/09/13 03:25:07;;;;;;;55.80;40.53;;;18.20;95.20;;;;;;4960254;28;20439;-75
2023/09/13 03:27:32;;;;;;;57.13;39.63;;;18.10;95.10;;;;;;4955598;28;20792;-78
2023/09/13 03:30:02;;;;;;;54.60;39.05;;;18.10;95.20;;;;;;4951774;28;20035;-74
2023/09/13 03:32:29;;;;;;;52.75;36.47;;;18.10;95.20;;;;;;4943789;28;20441;-75
2023/09/13 03:34:55;;;;;;;58.17;38.60;;;18.10;95.30;;;;;;4944162;28;20051;-76
2023/09/13 03:37:20;;;;;;;52.15;37.33;;;18.10;95.20;;;;;;4939967;28;20602;-76
2023/09/13 03:39:46;;;;;;;57.70;39.17;;;18.10;95.30;;;;;;4961287;28;20435;-76
2023/09/13 03:42:11;;;;;;;48.55;36.55;;;18.10;95.30;;;;;;4983847;28;20124;-75
2023/09/13 03:44:37;;;;;;;48.28;34.53;;;18.10;95.40;;;;;;4950287;28;20107;-75
2023/09/13 03:47:03;;;;;;;52.33;34.28;;;18.10;95.40;;;;;;4950907;28;20118;-76
2023/09/13 03:49:29;;;;;;;50.47;35.55;;;18.10;95.40;;;;;;4940439;28;20044;-75
2023/09/13 03:51:54;;;;;;;52.80;35.95;;;18.10;95.50;;;;;;4950791;28;20034;-74
2023/09/13 03:54:20;;;;;;;50.92;35.63;;;18.10;95.50;;;;;;4945344;28;20109;-78
2023/09/13 03:56:46;;;;;;;49.05;35.58;;;18.10;95.60;;;;;;4943618;28;20100;-75
2023/09/13 03:59:11;;;;;;;54.22;36.65;;;18.10;95.60;;;;;;4941664;28;20366;-75
2023/09/13 04:01:37;;;;;;;52.35;34.38;;;18.10;95.50;;;;;;4942280;28;20058;-75
2023/09/13 04:04:03;;;;;;;55.65;36.75;;;18.10;95.70;;;;;;5012313;28;20525;-75
2023/09/13 04:06:29;;;;;;;56.97;36.72;;;18.10;95.80;;;;;;5041104;28;20388;-77
2023/09/13 04:08:54;;;;;;;49.70;35.90;;;18.10;95.80;;;;;;4941839;28;20044;-75
2023/09/13 04:11:20;;;;;;;54.08;36.72;;;18.20;95.90;;;;;;4941193;28;20140;-75
2023/09/13 04:13:45;;;;;;;48.92;34.83;;;18.20;95.90;;;;;;4944882;28;20501;-75
2023/09/13 04:16:15;;;;;;;47.50;34.67;;;18.20;95.90;;;;;;4940932;28;20676;-75
2023/09/13 04:18:41;;;;;;;46.25;33.78;;;18.20;95.90;;;;;;4994175;28;20106;-76
2023/09/13 04:21:07;;;;;;;45.08;34.25;;;18.30;95.90;;;;;;5037816;28;20418;-75
2023/09/13 04:23:33;;;;;;;43.47;34.50;;;18.20;95.90;;;;;;4981928;28;20044;-75
2023/09/13 04:25:58;;;;;;;44.25;34.67;;;18.30;95.90;;;;;;4941166;28;20065;-76
2023/09/13 04:28:24;;;;;;;46.83;33.80;;;18.30;95.90;;;;;;4947277;28;20104;-78
2023/09/13 04:30:50;;;;;;;44.50;34.42;;;18.40;95.80;;;;;;4960445;28;20046;-76
2023/09/13 04:33:15;;;;;;;43.60;33.10;;;18.40;95.80;;;;;;4959477;28;20039;-75
2023/09/13 04:35:41;;;;;;;42.78;34.03;;;18.30;95.80;;;;;;4970522;28;20741;-76
2023/09/13 04:38:07;;;;;;;39.78;32.30;;;18.30;95.80;;;;;;4990984;28;20447;-80
2023/09/13 04:40:32;;;;;;;41.90;31.40;;;18.30;95.80;;;;;;4964847;28;20061;-77
2023/09/13 04:43:04;;;;;;;38.78;30.67;;;18.40;95.80;;;;;;4961410;28;20443;-75
2023/09/13 04:45:30;;;;;;;38.67;30.65;;;18.40;95.80;;;;;;4966363;28;20043;-79
2023/09/13 04:47:55;;;;;;;36.00;27.90;;;18.30;95.80;;;;;;4958440;28;20031;-75
2023/09/13 04:50:21;;;;;;;34.25;27.60;;;18.30;95.80;;;;;;4964297;28;20059;-74
2023/09/13 04:52:47;;;;;;;37.58;27.60;;;18.30;95.90;;;;;;4963183;28;20121;-78
2023/09/13 04:55:12;;;;;;;37.85;27.25;;;18.40;95.80;;;;;;4965321;28;20916;-75
2023/09/13 04:57:38;;;;;;;36.35;27.67;;;18.40;95.70;;;;;;4964109;28;20030;-79
2023/09/13 05:00:11;;;;;;;36.22;26.38;;;18.40;95.70;;;;;;4961016;28;20453;-76
2023/09/13 05:02:38;;;;;;;38.13;25.23;;;18.40;95.60;;;;;;4975782;28;20024;-75
2023/09/13 05:05:04;;;;;;;34.90;24.77;;;18.30;95.60;;;;;;4959038;28;20577;-76
2023/09/13 05:07:29;;;;;;;30.67;22.60;;;18.30;95.60;;;;;;4962541;28;20104;-75
2023/09/13 05:09:55;;;;;;;31.52;22.30;;;18.30;95.50;;;;;;4932708;28;20562;-76
2023/09/13 05:12:21;;;;;;;28.65;21.33;;;18.20;95.50;;;;;;4943427;28;20045;-78
2023/09/13 05:14:47;;;;;;;31.23;19.92;;;18.20;95.50;;;;;;4962234;28;20097;-75
2023/09/13 05:17:13;;;;;;;29.60;19.90;;;18.10;95.50;;;;;;4941628;28;20062;-75
2023/09/13 05:19:38;;;;;;;26.77;18.27;;;18.20;95.60;;;;;;5016436;28;20568;-76
2023/09/13 05:22:04;;;;;;;28.20;18.52;;;18.10;95.50;;;;;;4969900;28;20101;-77
2023/09/13 05:24:30;;;;;;;27.27;16.65;;;18.10;95.50;;;;;;4946080;28;20401;-75
2023/09/13 05:26:56;;;;;;;28.02;15.77;;;18.10;95.50;;;;;;4944403;28;20599;-75
2023/09/13 05:29:22;;;;;;;23.63;13.27;;;18.10;95.40;;;;;;4942260;28;20043;-74
2023/09/13 05:31:49;;;;;;;22.38;12.93;;;18.10;95.40;;;;;;4944245;28;20065;-77
2023/09/13 05:34:15;;;;;;;23.63;12.45;;;18.10;95.40;;;;;;4964436;28;20031;-76
2023/09/13 05:36:43;;;;;;;20.45;11.00;;;18.10;95.30;;;;;;4962585;28;20107;-78
2023/09/13 05:39:09;;;;;;;22.73;10.77;;;18.10;95.30;;;;;;4966473;28;20054;-80
2023/09/13 05:41:35;;;;;;;18.00;9.02;;;18.10;95.20;;;;;;4962356;28;20115;-77
2023/09/13 05:44:00;;;;;;;18.75;9.00;;;18.10;95.20;;;;;;4956588;27;20039;-75
2023/09/13 05:46:26;;;;;;;22.10;8.77;;;18.10;95.10;;;;;;4964044;28;20030;-77
2023/09/13 05:48:52;;;;;;;20.50;8.52;;;18.10;95.10;;;;;;4962156;28;20062;-75
2023/09/13 05:51:19;;;;;;;17.77;7.70;;;18.10;95.10;;;;;;4955340;28;20080;-77
2023/09/13 05:53:45;;;;;;;16.80;6.68;;;18.00;95.10;;;;;;4962245;28;20081;-75
2023/09/13 05:56:11;;;;;;;20.15;7.13;;;18.10;95.20;;;;;;4951804;28;20058;-75
2023/09/13 05:58:37;;;;;;;17.92;6.43;;;18.10;95.10;;;;;;4961653;28;20092;-77
2023/09/13 06:01:03;;;;;;;18.33;7.63;;;18.10;95.10;;;;;;4960795;28;20547;-75
2023/09/13 06:03:30;;;;;;;18.85;6.72;;;18.20;94.90;;;;;;4962202;28;20049;-75
2023/09/13 06:05:56;;;;;;;18.50;5.72;;;18.20;94.90;;;;;;4965068;28;20097;-75
2023/09/13 06:08:22;;;;;;;23.27;6.43;;;18.30;94.80;;;;;;5050355;28;20043;-74
2023/09/13 06:10:48;;;;;;;21.38;6.15;;;18.30;94.60;;;;;;4945328;28;20545;-77
2023/09/13 06:13:15;;;;;;;26.70;5.93;;;18.30;94.50;;;;;;4956741;28;20031;-76
2023/09/13 06:15:41;;;;;;;20.33;5.85;;;18.30;94.40;;;;;;4955317;28;20058;-75
2023/09/13 06:18:06;;;;;;;19.40;5.60;;;18.30;94.40;;;;;;4961964;28;20081;-77
2023/09/13 06:20:32;;;;;;;29.80;5.57;;;18.30;94.40;;;;;;4962160;28;20109;-76
2023/09/13 06:22:59;;;;;;;20.55;5.30;;;18.30;94.30;;;;;;4952469;28;20043;-73
2023/09/13 06:25:24;;;;;;;22.95;5.38;;;18.30;94.20;;;;;;4947093;28;20031;-74
2023/09/13 06:27:50;;;;;;;20.33;5.15;;;18.40;94.00;;;;;;4945753;28;20069;-74
2023/09/13 06:30:16;;;;;;;27.40;5.20;;;18.30;93.90;;;;;;4961574;28;20033;-77
2023/09/13 06:32:42;;;;;;;17.15;4.10;;;18.40;93.70;;;;;;4948743;28;20050;-78
2023/09/13 06:35:12;;;;;;;18.75;4.90;;;18.40;93.80;;;;;;4962300;28;20035;-74
2023/09/13 06:37:37;;;;;;;22.20;5.07;;;18.50;93.40;;;;;;4968720;28;20404;-78
2023/09/13 06:40:04;;;;;;;20.42;4.53;;;18.60;93.10;;;;;;5040053;28;20025;-75
2023/09/13 06:42:30;;;;;;;23.42;5.00;;;18.70;93.00;;;;;;5039821;28;20124;-74
2023/09/13 06:44:57;;;;;;;26.60;4.80;;;18.80;92.50;;;;;;4987300;28;20110;-75
2023/09/13 06:47:22;;;;;;;16.25;4.35;;;18.90;92.30;;;;;;4955119;28;20040;-75
2023/09/13 06:49:48;;;;;;;18.83;4.35;;;18.90;92.00;;;;;;4944122;28;20085;-74
2023/09/13 06:52:14;;;;;;;19.38;4.43;;;18.80;92.00;;;;;;4970624;28;20418;-74
2023/09/13 06:54:40;;;;;;;18.35;3.78;;;18.80;92.00;;;;;;4943244;28;20036;-74
2023/09/13 06:57:08;;;;;;;15.15;3.55;;;18.80;92.00;;;;;;4947755;28;20390;-78
2023/09/13 06:59:34;;;;;;;24.27;4.18;;;18.90;91.80;;;;;;4945578;28;20097;-74
2023/09/13 07:01:59;;;;;;;20.60;4.70;;;18.80;91.70;;;;;;4942697;28;20043;-77
2023/09/13 07:04:25;;;;;;;19.42;4.35;;;18.80;91.70;;;;;;4942899;28;20030;-75
2023/09/13 07:06:50;;;;;;;18.30;4.30;;;18.80;91.70;;;;;;4945411;28;20102;-74
2023/09/13 07:09:16;;;;;;;20.77;4.15;;;18.90;91.60;;;;;;4937156;28;20051;-76
2023/09/13 07:11:43;;;;;;;22.60;4.57;;;19.00;91.60;;;;;;4940977;28;20019;-75
2023/09/13 07:14:08;;;;;;;16.08;3.72;;;18.90;91.40;;;;;;4948468;28;20047;-76
2023/09/13 07:16:34;;;;;;;16.65;4.55;;;18.90;91.10;;;;;;4966849;28;20027;-80
2023/09/13 07:19:02;;;;;;;20.48;4.10;;;19.00;90.90;;;;;;4954636;28;20043;-74
2023/09/13 07:21:29;;;;;;;26.40;4.95;;;18.90;91.10;;;;;;4965402;28;20376;-74
2023/09/13 07:23:55;;;;;;;24.70;4.63;;;19.00;91.10;;;;;;4936898;28;20102;-77
2023/09/13 07:26:20;;;;;;;22.00;4.28;;;19.00;90.90;;;;;;4992327;28;20019;-74
2023/09/13 07:28:46;;;;;;;18.90;4.00;;;19.00;90.80;;;;;;4945898;28;20054;-75
2023/09/13 07:31:12;;;;;;;17.58;4.43;;;19.10;91.00;;;;;;4944698;28;20024;-74
2023/09/13 07:33:38;;;;;;;21.30;4.50;;;19.00;91.30;;;;;;4960345;28;20687;-74
2023/09/13 07:36:04;;;;;;;23.52;4.15;;;19.10;91.30;;;;;;4944340;28;20114;-77
2023/09/13 07:38:29;;;;;;;22.10;4.45;;;19.10;91.40;;;;;;4948211;28;20510;-75
2023/09/13 07:40:55;;;;;;;18.75;3.95;;;19.10;91.30;;;;;;4959484;28;20080;-75
2023/09/13 07:43:20;;;;;;;21.05;4.57;;;19.10;91.40;;;;;;4956671;28;20035;-76
2023/09/13 07:45:46;;;;;;;23.13;4.57;;;19.30;91.40;;;;;;4964367;28;20552;-75
2023/09/13 07:48:12;;;;;;;21.98;4.00;;;19.40;91.20;;;;;;4952571;28;20397;-78
2023/09/13 07:50:44;;;;;;;17.63;3.78;;;19.40;90.40;;;;;;4957093;28;20047;-74
2023/09/13 07:53:11;;;;;;;17.52;3.80;;;19.40;90.00;;;;;;4958087;28;20054;-75
2023/09/13 07:55:37;;;;;;;20.42;4.22;;;19.40;89.60;;;;;;4988203;28;20021;-75
2023/09/13 07:58:04;;;;;;;16.83;3.78;;;19.40;89.10;;;;;;4949663;28;20032;-75
2023/09/13 08:00:30;;;;;;;19.92;4.05;;;19.20;88.70;;;;;;4942646;28;20020;-75
2023/09/13 08:02:56;;;;;;;16.85;3.53;;;19.20;88.30;;;;;;4941654;28;20043;-76
2023/09/13 08:05:22;;;;;;;26.88;5.22;;;19.20;88.90;;;;;;4944093;28;20867;-76
2023/09/13 08:07:47;;;;;;;15.70;3.33;;;19.30;88.70;;;;;;4945266;28;20134;-75
2023/09/13 08:10:13;;;;;;;16.63;3.78;;;19.40;88.60;;;;;;4941453;28;20082;-74
2023/09/13 08:12:40;;;;;;;15.05;3.85;;;19.60;88.60;;;;;;4964456;28;20062;-72
2023/09/13 08:15:06;;;;;;;13.32;3.38;;;19.90;87.00;;;;;;4977045;28;20028;-76
2023/09/13 08:17:33;;;;;;;14.25;3.28;;;20.00;85.70;;;;;;4969122;28;20053;-74
2023/09/13 08:19:59;;;;;;;15.70;3.78;;;20.10;85.40;;;;;;5020330;28;20030;-76
2023/09/13 08:22:24;;;;;;;14.73;3.17;;;20.30;84.40;;;;;;4952661;28;20061;-76
2023/09/13 08:24:50;;;;;;;17.20;3.22;;;20.30;82.80;;;;;;4991405;28;20027;-73
2023/09/13 08:27:16;;;;;;;15.38;3.40;;;20.00;83.40;;;;;;4970774;28;20395;-77
2023/09/13 08:29:42;;;;;;;15.88;3.13;;;19.90;83.70;;;;;;4977170;28;20078;-75
2023/09/13 08:32:07;;;;;;;14.05;2.78;;;19.90;83.80;;;;;;4982684;28;20401;-77
2023/09/13 08:34:33;;;;;;;11.77;3.08;;;19.90;83.20;;;;;;4992032;28;20046;-76
2023/09/13 08:36:59;;;;;;;13.43;3.80;;;20.10;83.50;;;;;;5002758;28;20124;-78
2023/09/13 08:39:25;;;;;;;18.20;3.63;;;20.30;82.70;;;;;;4959236;28;20543;-75
2023/09/13 08:41:55;;;;;;;15.65;3.17;;;20.10;82.30;;;;;;4989493;28;20102;-75
2023/09/13 08:44:22;;;;;;;15.45;3.20;;;20.00;83.30;;;;;;5001418;28;20046;-74
2023/09/13 08:46:55;;;;;;;17.75;3.67;;;20.30;83.00;;;;;;5007026;28;20042;-75
2023/09/13 08:49:22;;;;;;;14.80;2.88;;;20.80;83.10;;;;;;4968037;28;20035;-74
2023/09/13 08:51:50;;;;;;;15.50;3.00;;;20.80;79.80;;;;;;4962977;28;20045;-73
2023/09/13 08:54:16;;;;;;;9.50;2.45;;;21.00;80.10;;;;;;4950268;28;20035;-78
2023/09/13 08:56:42;;;;;;;8.82;2.05;;;20.90;78.10;;;;;;4960842;28;20042;-74
2023/09/13 08:59:09;;;;;;;9.85;2.10;;;20.90;77.30;;;;;;5024247;28;20048;-74
2023/09/13 09:01:37;;;;;;;10.43;2.65;;;21.00;76.40;;;;;;5045000;28;20025;-72
2023/09/13 09:04:03;;;;;;;5.38;1.63;;;21.00;77.00;;;;;;4939688;28;20101;-76
2023/09/13 09:06:33;;;;;;;6.10;1.50;;;20.90;76.20;;;;;;4942147;28;20054;-73
2023/09/13 09:09:00;;;;;;;5.63;1.02;;;21.00;75.20;;;;;;4955451;28;20861;-73
2023/09/13 09:11:27;;;;;;;6.25;1.38;;;21.10;74.90;;;;;;4961213;28;20426;-76
2023/09/13 09:14:00;;;;;;;5.28;1.40;;;21.20;74.90;;;;;;4961730;28;20074;-73
2023/09/13 09:16:27;;;;;;;6.22;1.65;;;21.20;73.70;;;;;;4957871;28;20058;-74
2023/09/13 09:19:00;;;;;;;7.35;1.52;;;21.20;74.40;;;;;;4944524;28;20043;-73
2023/09/13 09:21:26;;;;;;;5.93;1.63;;;21.30;74.30;;;;;;4950166;28;20046;-74
2023/09/13 09:23:53;;;;;;;4.43;1.40;;;21.10;73.50;;;;;;4948884;28;20067;-74
2023/09/13 09:26:19;;;;;;;7.55;1.80;;;21.00;74.30;;;;;;4945826;28;20102;-73
2023/09/13 09:28:46;;;;;;;4.70;1.70;;;21.00;75.10;;;;;;4957496;28;21530;-77
2023/09/13 09:31:12;;;;;;;5.78;1.60;;;21.00;74.20;;;;;;4965735;28;20509;-73
2023/09/13 09:33:39;;;;;;;2.83;1.55;;;21.00;75.40;;;;;;4962719;28;20062;-73
2023/09/13 09:36:05;;;;;;;3.83;1.50;;;21.00;74.60;;;;;;4975402;28;20026;-74
2023/09/13 09:38:31;;;;;;;4.25;1.38;;;21.00;73.90;;;;;;4964746;28;20118;-74
2023/09/13 09:41:04;;;;;;;5.78;1.67;;;21.00;73.40;;;;;;4965258;28;20106;-77
2023/09/13 09:43:30;;;;;;;3.30;1.33;;;20.90;73.80;;;;;;4961701;28;20142;-77
2023/09/13 09:45:56;;;;;;;4.35;1.60;;;21.10;73.00;;;;;;4982575;28;20121;-73
2023/09/13 09:48:22;;;;;;;3.97;1.65;;;21.20;73.00;;;;;;4945127;28;20047;-72
2023/09/13 09:50:52;;;;;;;4.13;1.30;;;21.20;72.90;;;;;;4948211;28;20042;-75
2023/09/13 09:53:20;;;;;;;3.97;1.45;;;21.20;73.10;;;;;;4943648;28;20062;-74
2023/09/13 09:55:46;;;;;;;3.83;1.50;;;21.40;72.00;;;;;;4936444;28;20074;-79
2023/09/13 09:58:12;;;;;;;5.10;1.45;;;21.30;71.80;;;;;;4951815;28;20074;-77
2023/09/13 10:00:52;;;;;;;4.97;1.70;;;21.20;71.70;;;;;;4959371;28;20498;-73
2023/09/13 10:03:19;;;;;;;5.53;1.67;;;21.40;71.60;;;;;;4989990;28;20060;-74
2023/09/13 10:05:58;;;;;;;7.38;1.40;;;21.60;71.80;;;;;;5037885;28;20498;-73
2023/09/13 10:08:44;;;;;;;3.78;1.20;;;21.70;71.70;;;;;;4968950;28;20040;-73
2023/09/13 10:11:15;;;;;;;6.20;1.63;;;21.80;70.30;;;;;;4946946;28;20031;-76
2023/09/13 10:13:44;;;;;;;4.00;1.67;;;21.70;69.60;;;;;;4944964;28;20035;-74
2023/09/13 10:16:13;;;;;;;4.18;1.50;;;21.50;70.90;;;;;;4944941;28;20035;-78
2023/09/13 10:18:48;;;;;;;4.05;1.40;;;21.40;70.80;;;;;;4956111;28;20034;-72
2023/09/13 10:21:26;;;;;;;3.10;1.20;;;21.60;70.20;;;;;;4958683;28;20429;-73
2023/09/13 10:24:02;;;;;;;5.57;1.77;;;21.60;69.70;;;;;;4951216;28;20051;-73
2023/09/13 10:26:30;;;;;;;3.78;1.50;;;21.20;69.00;;;;;;4963054;28;20035;-74
2023/09/13 10:29:04;;;;;;;3.60;1.42;;;21.00;68.60;;;;;;4939810;28;20051;-73
2023/09/13 10:31:34;;;;;;;4.00;1.63;;;20.90;69.20;;;;;;4961925;28;20565;-72
2023/09/13 10:34:05;;;;;;;3.72;1.65;;;21.00;69.70;;;;;;4954853;28;20042;-74
2023/09/13 10:36:34;;;;;;;5.72;1.63;;;21.40;69.40;;;;;;4956135;28;20027;-74
2023/09/13 10:39:15;;;;;;;5.05;1.45;;;21.50;67.20;;;;;;5008439;28;20039;-73
2023/09/13 10:41:59;;;;;;;3.38;1.50;;;21.20;67.10;;;;;;5027474;28;20056;-73
2023/09/13 10:44:25;;;;;;;7.32;1.77;;;21.00;68.60;;;;;;4958813;28;20045;-73
2023/09/13 10:46:51;;;;;;;2.00;0.95;;;21.40;68.20;;;;;;4956675;28;20146;-72
2023/09/13 10:49:17;;;;;;;4.50;1.48;;;21.60;66.40;;;;;;4958707;28;20050;-76
2023/09/13 10:51:43;;;;;;;3.00;1.30;;;21.50;66.60;;;;;;4956417;28;20349;-72
2023/09/13 10:54:10;;;;;;;3.25;1.25;;;21.50;66.70;;;;;;4954319;28;20502;-72
2023/09/13 10:56:36;;;;;;;3.85;1.40;;;21.60;67.80;;;;;;4956538;28;20405;-72
2023/09/13 10:59:04;;;;;;;5.18;1.30;;;21.60;67.60;;;;;;4953148;28;20042;-73
2023/09/13 11:01:31;;;;;;;5.03;1.40;;;21.50;65.70;;;;;;4955640;28;20114;-73
2023/09/13 11:03:57;;;;;;;5.05;1.48;;;21.40;67.40;;;;;;4955460;28;20038;-74
2023/09/13 11:06:24;;;;;;;2.47;1.30;;;21.70;66.10;;;;;;4954940;28;20115;-74
2023/09/13 11:08:50;;;;;;;4.78;1.50;;;22.00;67.00;;;;;;4950956;28;20031;-74
2023/09/13 11:11:18;;;;;;;3.65;1.23;;;22.10;67.50;;;;;;4950298;28;20099;-76
2023/09/13 11:13:50;;;;;;;3.70;1.42;;;22.10;66.40;;;;;;4951963;28;20035;-77
2023/09/13 11:16:17;;;;;;;4.00;1.30;;;21.90;64.50;;;;;;4954520;28;20568;-77
2023/09/13 11:18:48;;;;;;;2.92;1.35;;;22.20;65.10;;;;;;4953101;28;20121;-74
2023/09/13 11:21:24;;;;;;;4.22;1.40;;;22.40;63.60;;;;;;4952162;28;20034;-73
2023/09/13 11:23:52;;;;;;;3.60;1.20;;;22.00;63.90;;;;;;4953714;28;20045;-73
2023/09/13 11:26:41;;;;;;;2.65;1.30;;;22.00;63.40;;;;;;4952888;28;20035;-73
2023/09/13 11:29:26;;;;;;;2.58;1.15;;;22.00;62.70;;;;;;4955663;28;20051;-74
2023/09/13 11:32:05;;;;;;;2.67;1.20;;;22.40;63.40;;;;;;4963061;28;20031;-76
2023/09/13 11:34:36;;;;;;;2.08;1.10;;;22.60;61.30;;;;;;4950993;28;20181;-74
2023/09/13 11:37:05;;;;;;;2.58;1.05;;;22.60;62.00;;;;;;4961166;28;20828;-75
2023/09/13 11:39:31;;;;;;;1.55;1.00;;;22.50;61.30;;;;;;4963107;28;20045;-75
2023/09/13 11:41:57;;;;;;;3.28;1.10;;;22.60;60.10;;;;;;4962535;28;20045;-75
2023/09/13 11:44:24;;;;;;;2.97;1.10;;;22.90;61.80;;;;;;4963376;28;20043;-74
2023/09/13 11:46:51;;;;;;;2.42;1.00;;;22.50;61.30;;;;;;4956240;28;20076;-77
2023/09/13 11:49:26;;;;;;;3.97;1.10;;;22.60;61.30;;;;;;4947507;28;20139;-76
2023/09/13 11:51:57;;;;;;;1.63;0.93;;;22.60;61.60;;;;;;4954164;28;20508;-74
2023/09/13 11:54:24;;;;;;;2.65;1.10;;;22.70;59.20;;;;;;4960742;28;20783;-75
2023/09/13 11:56:54;;;;;;;2.65;1.10;;;22.80;59.70;;;;;;4961969;28;20030;-75
2023/09/13 11:59:24;;;;;;;5.43;1.30;;;23.00;60.60;;;;;;5041673;28;20048;-77
2023/09/13 12:01:51;;;;;;;3.50;1.10;;;23.10;59.20;;;;;;4944909;28;20470;-72
2023/09/13 12:04:17;;;;;;;1.50;0.75;;;23.10;59.40;;;;;;4981267;28;20071;-72
2023/09/13 12:06:46;;;;;;;4.22;0.90;;;23.30;56.70;;;;;;4967105;28;20072;-76
2023/09/13 12:09:19;;;;;;;2.38;1.00;;;23.10;57.10;;;;;;4944229;28;20046;-74
2023/09/13 12:11:50;;;;;;;3.58;1.45;;;23.00;56.90;;;;;;4961948;28;20065;-73
2023/09/13 12:14:21;;;;;;;5.53;1.50;;;23.20;59.50;;;;;;4944181;28;20481;-74
2023/09/13 12:16:50;;;;;;;4.57;1.20;;;23.40;58.50;;;;;;4942390;28;20027;-74
2023/09/13 12:19:16;;;;;;;3.70;1.10;;;23.50;59.30;;;;;;4938270;28;20519;-76
2023/09/13 12:21:46;;;;;;;5.82;1.55;;;23.60;60.10;;;;;;4945063;28;20023;-74
2023/09/13 12:24:18;;;;;;;5.78;1.52;;;23.30;63.40;;;;;;4935219;28;20111;-72
2023/09/13 12:26:44;;;;;;;6.68;1.73;;;23.20;64.50;;;;;;4941733;28;20027;-72
2023/09/13 12:29:10;;;;;;;4.80;1.38;;;22.90;63.50;;;;;;4941245;28;20051;-74
2023/09/13 12:31:36;;;;;;;4.88;1.40;;;22.90;64.30;;;;;;4952030;28;20166;-74
2023/09/13 12:34:02;;;;;;;6.95;1.40;;;22.80;63.90;;;;;;4961888;28;20130;-75
2023/09/13 12:36:28;;;;;;;5.75;1.52;;;22.90;63.80;;;;;;4964703;28;20027;-73